createdAt,value
2022-10-22T00:01:38.997Z,100588.09
2022-10-22T00:04:41.837Z,100609.72
2022-10-22T00:07:44.122Z,100598.56
2022-10-22T00:10:46.592Z,100582.09
2022-10-22T00:13:50.129Z,100584.50
2022-10-22T00:16:52.641Z,100596.91
2022-10-22T00:19:54.855Z,100598.84
2022-10-22T00:22:57.437Z,100598.16
2022-10-22T00:26:00.025Z,100593.97
2022-10-22T00:29:02.719Z,100588.63
2022-10-22T00:32:05.441Z,100599.13
2022-10-22T00:35:07.963Z,100594.88
2022-10-22T00:38:10.106Z,100587.16
2022-10-22T00:41:13.016Z,100584.56
2022-10-22T00:44:34.046Z,100570.56
2022-10-22T00:47:39.315Z,100572.16
2022-10-22T00:50:43.724Z,100555.47
2022-10-22T00:53:48.979Z,100559.78
2022-10-22T00:56:51.581Z,100556.47
2022-10-22T00:59:54.264Z,100566.06
2022-10-22T01:02:57.337Z,100560.16
2022-10-22T01:06:01.468Z,100568.87
2022-10-22T01:09:18.897Z,100570.25
2022-10-22T01:12:21.499Z,100578.22
2022-10-22T01:15:26.602Z,100580.81
2022-10-22T01:18:29.177Z,100583.28
2022-10-22T01:21:34.740Z,100575.59
2022-10-22T01:24:37.336Z,100565.94
2022-10-22T01:27:44.160Z,100564.31
2022-10-22T01:30:48.762Z,100565.13
2022-10-22T01:33:53.224Z,100560.81
2022-10-22T01:36:55.997Z,100572.06
2022-10-22T01:40:00.826Z,100579.97
2022-10-22T01:43:05.175Z,100583.69
2022-10-22T01:46:09.873Z,100571.50
2022-10-22T01:49:18.803Z,100553.72
2022-10-22T01:52:30.293Z,100549.84
2022-10-22T01:55:32.811Z,100551.06
2022-10-22T01:58:41.014Z,100539.97
2022-10-22T02:02:13.754Z,100525.37
2022-10-22T02:05:16.241Z,100524.72
2022-10-22T02:08:20.385Z,100546.59
2022-10-22T02:11:22.924Z,100533.88
2022-10-22T02:14:26.319Z,100535.75
2022-10-22T02:17:31.663Z,100535.75
2022-10-22T02:20:35.352Z,100532.34
2022-10-22T02:23:38.401Z,100541.94
2022-10-22T02:26:45.020Z,100542.94
2022-10-22T02:29:53.391Z,100550.75
2022-10-22T02:32:57.976Z,100557.78
2022-10-22T02:36:01.853Z,100550.88
2022-10-22T02:39:04.992Z,100545.09
2022-10-22T02:42:08.750Z,100546.16
2022-10-22T02:45:11.076Z,100559.31
2022-10-22T02:48:13.635Z,100556.03
2022-10-22T02:51:16.015Z,100545.03
2022-10-22T02:54:18.514Z,100552.91
2022-10-22T03:00:28.224Z,100554.31
2022-10-22T03:03:30.527Z,100543.25
2022-10-22T03:06:33.152Z,100553.00
2022-10-22T03:09:35.525Z,100562.75
2022-10-22T03:12:38.080Z,100571.66
2022-10-22T03:15:40.287Z,100561.47
2022-10-22T03:18:43.107Z,100567.62
2022-10-22T03:22:00.414Z,100558.34
2022-10-22T03:25:07.959Z,100555.94
2022-10-22T03:28:11.935Z,100555.16
2022-10-22T03:31:14.947Z,100565.53
2022-10-22T03:34:17.128Z,100547.44
2022-10-22T03:37:20.017Z,100543.91
2022-10-22T03:40:22.821Z,100536.31
2022-10-22T03:43:25.344Z,100525.16
2022-10-22T03:46:27.627Z,100517.53
2022-10-22T03:49:30.319Z,100508.88
2022-10-22T03:52:36.996Z,100491.63
2022-10-22T03:55:41.121Z,100489.94
2022-10-22T03:58:43.442Z,100508.09
2022-10-22T04:01:45.980Z,100507.38
2022-10-22T04:04:48.522Z,100520.28
2022-10-22T04:07:50.743Z,100530.75
2022-10-22T04:10:53.369Z,100526.38
2022-10-22T04:13:55.514Z,100545.44
2022-10-22T04:16:57.981Z,100551.38
2022-10-22T04:20:00.301Z,100527.84
2022-10-22T04:23:02.861Z,100518.34
2022-10-22T04:26:06.351Z,100527.09
2022-10-22T04:29:11.982Z,100533.09
2022-10-22T04:32:17.449Z,100542.69
2022-10-22T04:35:20.075Z,100532.41
2022-10-22T04:38:22.473Z,100535.84
2022-10-22T04:41:26.478Z,100535.16
2022-10-22T04:44:28.765Z,100538.72
2022-10-22T04:47:31.318Z,100535.31
2022-10-22T04:50:33.644Z,100535.25
2022-10-22T04:53:40.489Z,100527.50
2022-10-22T04:56:42.768Z,100521.59
2022-10-22T04:59:45.263Z,100516.56
2022-10-22T05:02:51.108Z,100529.56
2022-10-22T05:05:53.718Z,100534.78
2022-10-22T05:08:57.366Z,100523.56
2022-10-22T05:11:59.910Z,100523.56
2022-10-22T05:15:02.176Z,100517.56
2022-10-22T05:18:04.866Z,100515.00
2022-10-22T05:21:15.042Z,100519.09
2022-10-22T05:24:17.518Z,100514.78
2022-10-22T05:30:22.275Z,100521.34
2022-10-22T05:33:24.951Z,100529.06
2022-10-22T05:36:27.756Z,100534.19
2022-10-22T05:39:29.967Z,100528.16
2022-10-22T05:42:33.002Z,100535.84
2022-10-22T05:45:39.092Z,100540.03
2022-10-22T05:48:41.795Z,100540.69
2022-10-22T05:51:44.112Z,100531.81
2022-10-22T05:54:46.676Z,100529.00
2022-10-22T05:57:50.187Z,100534.12
2022-10-22T06:00:52.637Z,100536.56
2022-10-22T06:03:56.466Z,100538.87
2022-10-22T06:06:58.745Z,100545.63
2022-10-22T06:10:01.924Z,100557.56
2022-10-22T06:13:08.061Z,100560.78
2022-10-22T06:16:10.820Z,100553.59
2022-10-22T06:19:13.995Z,100557.72
2022-10-22T06:22:16.837Z,100569.59
2022-10-22T06:25:19.160Z,100578.91
2022-10-22T06:28:21.736Z,100574.09
2022-10-22T06:31:25.177Z,100565.72
2022-10-22T06:34:29.816Z,100572.06
2022-10-22T06:37:32.105Z,100566.50
2022-10-22T06:40:35.122Z,100571.16
2022-10-22T06:43:37.318Z,100576.91
2022-10-22T06:46:42.613Z,100573.66
2022-10-22T06:49:45.748Z,100586.00
2022-10-22T06:52:48.374Z,100591.53
2022-10-22T06:55:50.591Z,100589.81
2022-10-22T06:58:54.157Z,100598.47
2022-10-22T07:01:56.350Z,100594.81
2022-10-22T07:04:58.793Z,100593.72
2022-10-22T07:08:01.075Z,100573.88
2022-10-22T07:11:11.159Z,100570.41
2022-10-22T07:14:14.183Z,100573.19
2022-10-22T07:17:16.706Z,100566.09
2022-10-22T07:20:20.915Z,100577.38
2022-10-22T07:23:23.675Z,100563.94
2022-10-22T07:26:28.205Z,100568.19
2022-10-22T07:29:31.038Z,100572.97
2022-10-22T07:32:33.438Z,100569.13
2022-10-22T07:35:36.728Z,100563.84
2022-10-22T07:38:38.984Z,100567.62
2022-10-22T07:41:41.956Z,100567.97
2022-10-22T07:44:44.155Z,100558.50
2022-10-22T07:47:47.599Z,100560.38
2022-10-22T07:50:50.850Z,100567.22
2022-10-22T07:53:53.436Z,100582.22
2022-10-22T07:56:55.714Z,100574.88
2022-10-22T07:59:58.533Z,100561.94
2022-10-22T08:03:00.853Z,100565.84
2022-10-22T08:06:03.582Z,100571.69
2022-10-22T08:09:06.303Z,100583.19
2022-10-22T08:12:08.960Z,100572.50
2022-10-22T08:15:11.182Z,100560.88
2022-10-22T08:18:14.121Z,100564.53
2022-10-22T08:21:17.428Z,100564.44
2022-10-22T08:24:19.976Z,100564.97
2022-10-22T08:27:22.151Z,100569.47
2022-10-22T08:30:27.040Z,100578.31
2022-10-22T08:33:29.320Z,100560.59
2022-10-22T08:36:31.877Z,100559.37
2022-10-22T08:39:34.388Z,100568.56
2022-10-22T08:42:48.918Z,100563.53
2022-10-22T08:46:17.687Z,100572.06
2022-10-22T08:49:21.276Z,100578.16
2022-10-22T08:52:23.620Z,100578.47
2022-10-22T08:55:26.387Z,100575.75
2022-10-22T08:58:47.388Z,100575.97
2022-10-22T09:01:52.264Z,100577.31
2022-10-22T09:05:00.226Z,100580.31
2022-10-22T09:08:02.852Z,100580.03
2022-10-22T09:11:11.402Z,100563.69
2022-10-22T09:14:18.196Z,100563.69
2022-10-22T09:17:35.433Z,100574.03
2022-10-22T09:20:37.970Z,100588.66
2022-10-22T09:23:56.104Z,100584.12
2022-10-22T09:26:58.698Z,100581.75
2022-10-22T09:30:01.784Z,100580.44
2022-10-22T09:33:12.559Z,100569.41
2022-10-22T09:36:21.210Z,100573.25
2022-10-22T09:39:28.833Z,100573.41
2022-10-22T09:42:35.313Z,100573.72
2022-10-22T09:45:37.883Z,100588.38
2022-10-22T09:48:42.187Z,100589.84
2022-10-22T09:51:51.934Z,100588.34
2022-10-22T09:54:54.260Z,100585.22
2022-10-22T09:57:58.706Z,100586.53
2022-10-22T10:01:00.977Z,100570.19
2022-10-22T10:04:09.303Z,100567.72
2022-10-22T10:07:16.624Z,100574.34
2022-10-22T10:10:36.618Z,100568.59
2022-10-22T10:13:41.899Z,100569.97
2022-10-22T10:16:54.451Z,100564.00
2022-10-22T10:20:01.398Z,100563.19
2022-10-22T10:23:12.379Z,100558.31
2022-10-22T10:26:14.650Z,100550.59
2022-10-22T10:29:23.046Z,100549.69
2022-10-22T10:32:44.522Z,100555.28
2022-10-22T10:36:06.778Z,100557.81
2022-10-22T10:39:12.139Z,100551.12
2022-10-22T10:42:14.631Z,100555.03
2022-10-22T10:45:20.699Z,100552.37
2022-10-22T10:48:35.986Z,100546.44
2022-10-22T10:51:54.255Z,100553.81
2022-10-22T10:55:15.113Z,100565.47
2022-10-22T10:58:26.275Z,100569.97
2022-10-22T11:01:46.990Z,100566.16
2022-10-22T11:05:11.978Z,100560.38
2022-10-22T11:08:14.689Z,100567.66
2022-10-22T11:11:19.632Z,100576.72
2022-10-22T11:14:30.008Z,100573.19
2022-10-22T11:17:37.065Z,100572.22
2022-10-22T11:20:42.742Z,100563.22
2022-10-22T11:23:49.230Z,100556.09
2022-10-22T11:26:55.591Z,100555.91
2022-10-22T11:30:02.042Z,100556.50
2022-10-22T11:33:11.744Z,100544.81
2022-10-22T11:36:14.266Z,100536.66
2022-10-22T11:39:35.330Z,100527.50
2022-10-22T11:42:39.962Z,100526.84
2022-10-22T11:45:43.056Z,100525.81
2022-10-22T11:49:00.476Z,100520.38
2022-10-22T11:52:23.277Z,100524.28
2022-10-22T11:55:30.914Z,100516.41
2022-10-22T11:58:44.728Z,100511.87
2022-10-22T12:01:48.044Z,100511.91
2022-10-22T12:04:50.707Z,100516.91
2022-10-22T12:08:16.302Z,100514.94
2022-10-22T12:11:38.903Z,100514.16
2022-10-22T12:14:51.908Z,100513.03
2022-10-22T12:18:01.245Z,100508.75
2022-10-22T12:21:03.720Z,100513.31
2022-10-22T12:24:07.149Z,100506.69
2022-10-22T12:27:22.589Z,100502.16
2022-10-22T12:30:30.497Z,100491.97
2022-10-22T12:33:32.872Z,100485.59
2022-10-22T12:36:36.283Z,100481.97
2022-10-22T12:39:38.822Z,100485.22
2022-10-22T12:42:46.755Z,100486.16
2022-10-22T12:45:49.902Z,100486.69
2022-10-22T12:48:52.799Z,100493.69
2022-10-22T12:51:55.116Z,100497.34
2022-10-22T12:54:57.703Z,100501.25
2022-10-22T12:57:59.992Z,100514.53
2022-10-22T13:01:02.946Z,100507.81
2022-10-22T13:04:20.455Z,100500.44
2022-10-22T13:07:22.960Z,100505.31
2022-10-22T13:10:25.227Z,100509.78
2022-10-22T13:13:54.130Z,100510.53
2022-10-22T13:17:10.608Z,100504.97
2022-10-22T13:20:23.324Z,100499.56
2022-10-22T13:23:26.665Z,100484.16
2022-10-22T13:26:37.275Z,100500.59
2022-10-22T13:29:41.524Z,100504.13
2022-10-22T13:32:49.465Z,100513.81
2022-10-22T13:35:52.085Z,100506.19
2022-10-22T13:38:54.585Z,100499.72
2022-10-22T13:41:57.133Z,100493.53
2022-10-22T13:44:59.630Z,100491.72
2022-10-22T13:48:02.080Z,100493.09
2022-10-22T13:51:07.674Z,100505.88
2022-10-22T13:54:15.210Z,100512.81
2022-10-22T13:57:17.724Z,100511.91
2022-10-22T14:00:23.459Z,100507.28
2022-10-22T14:03:28.475Z,100518.16
2022-10-22T14:06:31.750Z,100515.59
2022-10-22T14:09:34.468Z,100510.22
2022-10-22T14:12:36.744Z,100517.06
2022-10-22T14:15:39.740Z,100520.97
2022-10-22T14:18:42.125Z,100531.31
2022-10-22T14:21:44.729Z,100514.97
2022-10-22T14:24:47.237Z,100516.97
2022-10-22T14:27:49.779Z,100521.13
2022-10-22T14:30:52.459Z,100518.94
2022-10-22T14:33:55.162Z,100505.72
2022-10-22T14:36:57.567Z,100509.81
2022-10-22T14:40:01.780Z,100506.34
2022-10-22T14:43:05.447Z,100506.56
2022-10-22T14:46:08.818Z,100513.75
2022-10-22T14:49:11.157Z,100515.41
2022-10-22T14:52:14.943Z,100523.28
2022-10-22T14:55:18.901Z,100517.00
2022-10-22T14:58:21.403Z,100516.50
2022-10-22T15:01:23.751Z,100520.75
2022-10-22T15:04:27.262Z,100530.06
2022-10-22T15:07:29.483Z,100526.88
2022-10-22T15:10:32.014Z,100531.50
2022-10-22T15:13:35.068Z,100528.47
2022-10-22T15:16:37.654Z,100532.00
2022-10-22T15:19:40.325Z,100527.97
2022-10-22T15:22:43.546Z,100527.91
2022-10-22T15:25:45.904Z,100533.41
2022-10-22T15:28:48.591Z,100534.81
2022-10-22T15:31:52.857Z,100528.28
2022-10-22T15:34:56.050Z,100529.69
2022-10-22T15:37:58.504Z,100532.41
2022-10-22T15:41:04.570Z,100537.72
2022-10-22T15:44:08.708Z,100532.78
2022-10-22T15:47:11.399Z,100526.78
2022-10-22T15:50:14.071Z,100533.19
2022-10-22T15:53:16.796Z,100530.94
2022-10-22T15:56:19.393Z,100545.06
2022-10-22T15:59:22.799Z,100544.88
2022-10-22T16:02:25.179Z,100547.38
2022-10-22T16:05:27.907Z,100557.38
2022-10-22T16:08:30.401Z,100570.09
2022-10-22T16:11:33.464Z,100570.94
2022-10-22T16:14:35.829Z,100590.81
2022-10-22T16:17:38.417Z,100592.91
2022-10-22T16:20:41.149Z,100593.28
2022-10-22T16:23:44.255Z,100590.19
2022-10-22T16:26:47.257Z,100593.37
2022-10-22T16:29:50.435Z,100606.66
2022-10-22T16:32:52.990Z,100618.22
2022-10-22T16:35:55.828Z,100628.06
2022-10-22T16:38:59.394Z,100632.63
2022-10-22T16:42:02.098Z,100639.75
2022-10-22T16:45:05.971Z,100638.97
2022-10-22T16:48:09.140Z,100643.53
2022-10-22T16:51:13.265Z,100661.25
2022-10-22T16:54:16.042Z,100670.94
2022-10-22T16:57:21.539Z,100665.19
2022-10-22T17:00:25.355Z,100669.59
2022-10-22T17:03:28.455Z,100669.78
2022-10-22T17:06:31.750Z,100673.41
2022-10-22T17:09:34.626Z,100676.25
2022-10-22T17:12:37.371Z,100678.91
2022-10-22T17:15:40.581Z,100683.41
2022-10-22T17:21:50.133Z,100665.34
2022-10-22T17:25:06.800Z,100660.06
2022-10-22T17:28:10.014Z,100662.09
2022-10-22T17:31:19.003Z,100670.97
2022-10-22T17:34:22.512Z,100672.00
2022-10-22T17:37:25.787Z,100674.22
2022-10-22T17:40:28.388Z,100682.31
2022-10-22T17:43:31.220Z,100682.34
2022-10-22T17:46:34.016Z,100680.66
2022-10-22T17:49:36.904Z,100686.84
2022-10-22T17:52:39.712Z,100692.25
2022-10-22T17:55:42.569Z,100694.06
2022-10-22T17:58:45.638Z,100687.19
2022-10-22T18:01:49.867Z,100679.38
2022-10-22T18:04:53.175Z,100690.44
2022-10-22T18:07:56.129Z,100698.47
2022-10-22T18:11:00.292Z,100701.16
2022-10-22T18:14:02.745Z,100708.06
2022-10-22T18:17:05.849Z,100704.75
2022-10-22T18:20:08.783Z,100720.25
2022-10-22T18:23:13.515Z,100729.91
2022-10-22T18:26:18.453Z,100720.00
2022-10-22T18:29:24.274Z,100716.56
2022-10-22T18:32:26.934Z,100718.19
2022-10-22T18:35:31.806Z,100723.34
2022-10-22T18:38:34.591Z,100726.94
2022-10-22T18:41:38.454Z,100720.81
2022-10-22T18:44:42.154Z,100733.69
2022-10-22T18:47:44.909Z,100737.97
2022-10-22T18:50:47.432Z,100738.81
2022-10-22T18:53:59.239Z,100741.41
2022-10-22T18:57:13.994Z,100746.50
2022-10-22T19:00:16.884Z,100753.34
2022-10-22T19:03:20.570Z,100750.59
2022-10-22T19:06:34.407Z,100748.87
2022-10-22T19:09:39.880Z,100749.03
2022-10-22T19:12:42.673Z,100756.91
2022-10-22T19:15:46.250Z,100762.97
2022-10-22T19:18:52.907Z,100751.69
2022-10-22T19:21:56.631Z,100743.38
2022-10-22T19:24:59.768Z,100750.53
2022-10-22T19:28:03.347Z,100751.47
2022-10-22T19:31:07.182Z,100757.88
2022-10-22T19:34:09.958Z,100766.00
2022-10-22T19:37:13.355Z,100774.69
2022-10-22T19:40:16.116Z,100774.62
2022-10-22T19:43:19.124Z,100778.97
2022-10-22T19:46:24.066Z,100788.88
2022-10-22T19:49:26.893Z,100785.59
2022-10-22T19:52:29.615Z,100794.47
2022-10-22T19:55:32.792Z,100789.34
2022-10-22T19:58:36.086Z,100794.81
2022-10-22T20:01:39.324Z,100799.34
2022-10-22T20:04:43.300Z,100799.72
2022-10-22T20:07:48.743Z,100818.03
2022-10-22T20:10:53.103Z,100815.84
2022-10-22T20:13:56.828Z,100820.13
2022-10-22T20:16:59.750Z,100821.62
2022-10-22T20:20:02.431Z,100823.13
2022-10-22T20:23:05.161Z,100817.72
2022-10-22T20:26:07.751Z,100825.38
2022-10-22T20:29:11.571Z,100828.84
2022-10-22T20:32:14.299Z,100824.41
2022-10-22T20:35:17.035Z,100827.22
2022-10-22T20:38:19.475Z,100829.03
2022-10-22T20:41:22.872Z,100829.59
2022-10-22T20:44:25.338Z,100823.47
2022-10-22T20:47:39.154Z,100831.13
2022-10-22T20:50:50.721Z,100833.47
2022-10-22T20:53:53.478Z,100847.56
2022-10-22T20:56:56.862Z,100851.09
2022-10-22T21:00:00.074Z,100850.25
2022-10-22T21:03:02.265Z,100860.84
2022-10-22T21:06:05.487Z,100847.06
2022-10-22T21:09:08.627Z,100842.53
2022-10-22T21:12:11.320Z,100829.56
2022-10-22T21:15:13.572Z,100833.25
2022-10-22T21:18:16.062Z,100839.12
2022-10-22T21:21:19.103Z,100845.59
2022-10-22T21:24:24.725Z,100844.84
2022-10-22T21:27:26.936Z,100852.69
2022-10-22T21:30:29.672Z,100852.47
2022-10-22T21:33:32.135Z,100859.41
2022-10-22T21:36:34.982Z,100843.69
2022-10-22T21:39:41.224Z,100836.53
2022-10-22T21:42:44.788Z,100844.31
2022-10-22T21:45:47.220Z,100852.88
2022-10-22T21:48:54.121Z,100851.00
2022-10-22T21:51:56.358Z,100843.63
2022-10-22T21:55:05.445Z,100848.13
2022-10-22T21:58:08.661Z,100843.28
2022-10-22T22:01:11.695Z,100845.94
2022-10-22T22:04:14.277Z,100858.06
2022-10-22T22:07:16.469Z,100853.91
2022-10-22T22:10:18.939Z,100847.19
2022-10-22T22:13:24.932Z,100845.56
2022-10-22T22:16:29.295Z,100847.31
2022-10-22T22:19:31.603Z,100849.12
2022-10-22T22:22:34.094Z,100849.31
2022-10-22T22:25:36.257Z,100862.06
2022-10-22T22:28:38.866Z,100870.63
2022-10-22T22:31:41.124Z,100871.37
2022-10-22T22:34:46.423Z,100876.63
2022-10-22T22:37:48.573Z,100878.53
2022-10-22T22:40:51.055Z,100877.81
2022-10-22T22:46:55.853Z,100877.59
2022-10-22T22:49:58.419Z,100879.38
2022-10-22T22:53:00.973Z,100893.03
2022-10-22T22:56:03.147Z,100893.53
2022-10-22T22:59:06.221Z,100903.75
2022-10-22T23:02:08.548Z,100902.66
2022-10-22T23:05:11.076Z,100905.16
2022-10-22T23:08:13.253Z,100912.31
2022-10-22T23:11:16.432Z,100915.47
2022-10-22T23:14:19.113Z,100909.22
2022-10-22T23:17:21.682Z,100905.88
2022-10-22T23:20:23.871Z,100909.53
2022-10-22T23:23:26.423Z,100911.19
2022-10-22T23:26:30.083Z,100912.84
2022-10-22T23:29:34.082Z,100908.50
2022-10-22T23:32:37.197Z,100903.22
2022-10-22T23:35:40.901Z,100907.31
2022-10-22T23:38:43.417Z,100911.69
2022-10-22T23:41:46.108Z,100913.50
2022-10-22T23:44:48.428Z,100916.09
2022-10-22T23:47:51.043Z,100909.91
2022-10-22T23:53:57.085Z,100902.03
2022-10-22T23:56:59.363Z,100914.16
